createdAt,value
2022-09-01T00:04:21.341Z,87
2022-09-01T00:06:27.027Z,87.2
2022-09-01T00:08:35.848Z,87.6
2022-09-01T00:10:41.633Z,87.8
2022-09-01T00:12:47.467Z,88.1
2022-09-01T00:14:53.279Z,88.3
2022-09-01T00:16:59.083Z,88.4
2022-09-01T00:19:04.899Z,88.7
2022-09-01T00:21:10.715Z,88.8
2022-09-01T00:27:31.253Z,89.7
2022-09-01T00:29:36.934Z,89.7
2022-09-01T00:33:48.578Z,89.9
2022-09-01T00:35:54.377Z,90
2022-09-01T00:40:09.037Z,90.3
2022-09-01T00:42:14.779Z,90.3
2022-09-01T00:44:34.785Z,90.4
2022-09-01T00:48:46.386Z,90.5
2022-09-01T00:53:00.975Z,90.7
2022-09-01T00:55:06.792Z,90.9
2022-09-01T00:57:12.590Z,91
2022-09-01T00:59:19.224Z,91.1
2022-09-01T01:01:25.113Z,91.2
2022-09-01T01:03:30.849Z,91.2
2022-09-01T01:05:39.614Z,91.3
2022-09-01T01:07:47.411Z,91.4
2022-09-01T01:09:51.243Z,91.5
2022-09-01T01:11:57.057Z,91.5
2022-09-01T01:26:40.650Z,92
2022-09-01T01:28:46.440Z,92
2022-09-01T01:30:52.529Z,92.1
2022-09-01T01:32:58.034Z,92.1
2022-09-01T01:35:06.867Z,92.3
2022-09-01T01:37:12.626Z,92.3
2022-09-01T01:39:18.427Z,92.4
2022-09-01T01:40:22.933Z,92.4
2022-09-01T01:42:28.644Z,92.5
2022-09-01T01:44:34.615Z,92.6
2022-09-01T01:46:40.251Z,92.6
2022-09-01T01:48:50.607Z,92.7
2022-09-01T01:50:56.374Z,92.8
2022-09-01T01:53:02.190Z,92.8
2022-09-01T01:55:07.976Z,92.8
2022-09-01T01:57:13.770Z,92.9
2022-09-01T01:59:19.578Z,92.9
2022-09-01T02:01:25.593Z,93
2022-09-01T02:03:34.157Z,93.1
2022-09-01T02:05:39.960Z,93.2
2022-09-01T02:07:45.748Z,93.3
2022-09-01T02:09:51.574Z,93.3
2022-09-01T02:11:57.388Z,93.3
2022-09-01T02:14:03.158Z,93.4
2022-09-01T02:16:08.927Z,93.4
2022-09-01T02:18:17.772Z,93.5
2022-09-01T02:20:23.509Z,93.6
2022-09-01T02:22:29.364Z,93.7
2022-09-01T02:26:40.900Z,93.9
2022-09-01T02:28:49.835Z,93.9
2022-09-01T02:33:01.265Z,94.1
2022-09-01T02:35:07.074Z,94.2
2022-09-01T02:38:17.250Z,94.3
2022-09-01T02:40:23.080Z,94.3
2022-09-01T02:42:28.842Z,94.3
2022-09-01T02:48:49.192Z,94.4
2022-09-01T02:50:54.985Z,94.5
2022-09-01T02:53:03.826Z,94.5
2022-09-01T02:55:06.588Z,94.6
2022-09-01T02:57:12.369Z,94.5
2022-09-01T02:59:18.148Z,94.6
2022-09-01T03:01:27.007Z,94.6
2022-09-01T03:03:32.747Z,94.7
2022-09-01T03:05:38.544Z,94.7
2022-09-01T03:07:44.321Z,94.7
2022-09-01T03:09:50.136Z,94.7
2022-09-01T03:11:56.502Z,94.8
2022-09-01T03:14:01.674Z,94.8
2022-09-01T03:16:10.501Z,94.8
2022-09-01T03:18:16.337Z,94.8
2022-09-01T03:20:22.124Z,94.8
2022-09-01T03:22:27.908Z,94.8
2022-09-01T03:24:33.728Z,94.9
2022-09-01T03:26:39.603Z,94.8
2022-09-01T03:28:45.392Z,94.9
2022-09-01T03:30:54.148Z,94.9
2022-09-01T03:35:05.747Z,94.9
2022-09-01T03:36:15.260Z,94.9
2022-09-01T03:38:15.970Z,94.9
2022-09-01T03:40:21.781Z,94.9
2022-09-01T03:42:27.496Z,94.9
2022-09-01T03:44:36.262Z,94.9
2022-09-01T03:46:42.040Z,94.9
2022-09-01T03:48:47.851Z,94.9
2022-09-01T03:50:53.625Z,94.9
2022-09-01T03:52:59.423Z,94.9
2022-09-01T03:57:11.003Z,94.9
2022-09-01T03:59:19.757Z,94.8
2022-09-01T04:03:31.321Z,94.8
2022-09-01T04:07:43.008Z,94.8
2022-09-01T04:09:48.800Z,94.8
2022-09-01T04:11:54.607Z,94.8
2022-09-01T04:16:09.332Z,94.8
2022-09-01T04:18:15.058Z,94.8
2022-09-01T04:20:20.890Z,94.8
2022-09-01T04:22:26.647Z,94.8
2022-09-01T04:24:32.389Z,94.8
2022-09-01T04:26:38.310Z,94.8
2022-09-01T04:28:47.268Z,94.8
2022-09-01T04:30:53.251Z,94.8
2022-09-01T04:32:59.059Z,94.8
2022-09-01T04:35:30.455Z,94.7
2022-09-01T04:37:36.224Z,94.7
2022-09-01T04:39:42.004Z,94.8
2022-09-01T04:41:50.899Z,94.8
2022-09-01T04:43:56.687Z,94.8
2022-09-01T04:46:02.752Z,94.9
2022-09-01T04:48:08.359Z,94.9
2022-09-01T04:50:14.842Z,94.9
2022-09-01T04:52:20.016Z,95
2022-09-01T04:54:25.909Z,95
2022-09-01T04:56:34.703Z,95.2
2022-09-01T04:58:40.463Z,95.2
2022-09-01T05:00:46.414Z,95.3
2022-09-01T05:02:52.296Z,95.2
2022-09-01T05:04:58.133Z,95.2
2022-09-01T05:07:03.890Z,95.2
2022-09-01T05:09:09.822Z,95.1
2022-09-01T05:11:18.567Z,95
2022-09-01T05:13:24.433Z,95
2022-09-01T05:15:30.230Z,94.8
2022-09-01T05:17:36.101Z,94.6
2022-09-01T05:19:41.984Z,94.4
2022-09-01T05:21:47.871Z,94.2
2022-09-01T05:23:53.666Z,93.9
2022-09-01T05:26:02.421Z,93.5
2022-09-01T05:28:08.234Z,93.3
2022-09-01T05:30:14.082Z,93.2
2022-09-01T05:31:18.523Z,92.9
2022-09-01T05:35:32.375Z,92.9
2022-09-01T05:41:50.497Z,92.3
2022-09-01T05:44:00.308Z,92
2022-09-01T05:46:07.549Z,91.5
2022-09-01T05:48:07.852Z,91.1
2022-09-01T05:52:19.405Z,89.8
2022-09-01T05:54:28.173Z,88.9
2022-09-01T05:56:33.974Z,88.4
2022-09-01T06:00:45.558Z,84.6
2022-09-01T06:02:51.454Z,84.2
2022-09-01T06:04:57.411Z,83.9
2022-09-01T06:07:07.749Z,83.8
2022-09-01T06:15:29.172Z,71.1
2022-09-01T06:17:36.911Z,70.4
2022-09-01T06:19:40.792Z,70.1
2022-09-01T06:21:46.596Z,70.6
2022-09-01T06:23:55.380Z,70
2022-09-01T06:26:01.372Z,65.9
2022-09-01T06:28:07.009Z,59
2022-09-01T06:29:11.421Z,59.9
2022-09-01T06:33:23.002Z,60.3
2022-09-01T06:35:28.817Z,60.3
2022-09-01T06:37:37.619Z,59.4
2022-09-01T06:39:43.362Z,59
2022-09-01T06:41:49.178Z,58.8
2022-09-01T06:43:54.992Z,61
2022-09-01T06:46:00.818Z,65
2022-09-01T06:48:06.611Z,61.8
2022-09-01T06:50:12.566Z,62
2022-09-01T06:52:21.179Z,66.8
2022-09-01T06:54:26.957Z,67.9
2022-09-01T06:56:32.765Z,67.8
2022-09-01T06:58:38.574Z,62.4
2022-09-01T07:00:44.368Z,63
2022-09-01T07:02:50.243Z,63
2022-09-01T07:04:56.014Z,63.3
2022-09-01T07:11:21.422Z,60.8
2022-09-01T07:13:22.098Z,57.1
2022-09-01T07:17:33.659Z,52.6
2022-09-01T07:19:49.179Z,52.7
2022-09-01T07:22:07.187Z,51.4
2022-09-01T07:24:10.335Z,50
2022-09-01T07:26:04.378Z,49.3
2022-09-01T07:27:08.321Z,47.4
2022-09-01T07:33:44.509Z,46.1
2022-09-01T07:35:29.987Z,45.9
2022-09-01T07:38:48.497Z,45.9
2022-09-01T07:42:31.192Z,63.8
2022-09-01T07:45:59.070Z,49
2022-09-01T07:50:37.598Z,48.9
2022-09-01T07:52:22.637Z,48.2
2022-09-01T07:54:25.797Z,48
2022-09-01T07:56:32.226Z,47.8
2022-09-01T07:58:37.160Z,47.8
2022-09-01T08:00:42.812Z,48.6
2022-09-01T08:02:48.531Z,48.8
2022-09-01T08:04:57.153Z,49.5
2022-09-01T08:07:02.841Z,49.4
2022-09-01T08:09:11.620Z,48.7
2022-09-01T08:11:14.138Z,47.7
2022-09-01T08:13:21.804Z,47.6
2022-09-01T08:16:06.549Z,47.6
2022-09-01T08:17:50.190Z,47.6
2022-09-01T08:19:39.751Z,47.7
2022-09-01T08:21:45.399Z,48.2
2022-09-01T08:23:51.066Z,48.2
2022-09-01T08:26:22.106Z,47.9
2022-09-01T08:28:27.908Z,48.1
2022-09-01T08:30:33.407Z,48
2022-09-01T08:32:42.064Z,47.7
2022-09-01T08:34:47.713Z,47.8
2022-09-01T08:36:53.371Z,47.8
2022-09-01T08:39:00.012Z,47.6
2022-09-01T08:41:04.749Z,47.3
2022-09-01T08:43:15.132Z,47.2
2022-09-01T08:45:15.944Z,46.8
2022-09-01T08:47:39.478Z,46
2022-09-01T08:49:30.712Z,45.7
2022-09-01T08:53:41.536Z,45.2
2022-09-01T08:59:58.462Z,45.2
2022-09-01T09:04:12.777Z,44.8
2022-09-01T09:06:18.397Z,44.8
2022-09-01T09:10:29.661Z,44.4
2022-09-01T09:12:35.310Z,44.2
2022-09-01T09:14:40.955Z,43
2022-09-01T09:16:53.356Z,42.4
2022-09-01T09:18:55.988Z,41.8
2022-09-01T09:21:00.904Z,41.6
2022-09-01T09:22:05.222Z,41.5
2022-09-01T09:24:10.854Z,41.7
2022-09-01T09:26:21.878Z,41.7
2022-09-01T09:28:22.173Z,41.8
2022-09-01T09:30:30.864Z,42
2022-09-01T09:33:08.962Z,42
2022-09-01T09:34:42.133Z,42.1
2022-09-01T09:36:53.874Z,42.1
2022-09-01T09:38:53.458Z,42.1
2022-09-01T09:41:14.017Z,41.8
2022-09-01T09:43:04.782Z,41.8
2022-09-01T09:45:13.456Z,41.1
2022-09-01T09:47:42.419Z,40.8
2022-09-01T09:49:36.718Z,40.6
2022-09-01T09:51:30.486Z,40.5
2022-09-01T09:53:36.145Z,40.2
2022-09-01T09:55:41.823Z,40.1
2022-09-01T09:57:47.509Z,40
2022-09-01T10:00:00.982Z,39.8
2022-09-01T10:02:01.905Z,40
2022-09-01T10:04:07.678Z,40.1
2022-09-01T10:06:13.232Z,40.2
2022-09-01T10:12:30.298Z,40
2022-09-01T10:14:50.323Z,39.5
2022-09-01T10:16:44.697Z,39.5
2022-09-01T10:18:51.386Z,39.4
2022-09-01T10:19:54.689Z,39.3
2022-09-01T10:22:00.388Z,39.3
2022-09-01T10:24:21.159Z,39.4
2022-09-01T10:26:11.767Z,39.3
2022-09-01T10:28:21.182Z,38.7
2022-09-01T10:30:26.196Z,38.6
2022-09-01T10:32:37.202Z,38.5
2022-09-01T10:34:37.522Z,38.4
2022-09-01T10:36:47.103Z,38.4
2022-09-01T10:38:53.561Z,38.5
2022-09-01T10:40:54.663Z,38.8
2022-09-01T10:43:05.545Z,39
2022-09-01T10:45:08.991Z,39
2022-09-01T10:47:16.236Z,39
2022-09-01T10:49:25.174Z,39.1
2022-09-01T10:51:28.864Z,38.9
2022-09-01T10:53:33.435Z,39.1
2022-09-01T10:55:37.472Z,39
2022-09-01T10:57:46.147Z,38.4
2022-09-01T10:59:56.644Z,38.2
2022-09-01T11:02:22.900Z,38.1
2022-09-01T11:04:03.457Z,37.9
2022-09-01T11:06:12.943Z,37.9
2022-09-01T11:08:15.489Z,38.2
2022-09-01T11:17:44.724Z,38.4
2022-09-01T11:19:50.378Z,38.2
2022-09-01T11:21:56.071Z,38.2
2022-09-01T11:24:01.761Z,38.3
2022-09-01T11:26:21.765Z,38.6
2022-09-01T11:28:17.879Z,38.7
2022-09-01T11:30:21.869Z,38.9
2022-09-01T11:32:27.507Z,38.8
2022-09-01T11:34:33.197Z,38.8
2022-09-01T11:36:38.874Z,38.6
2022-09-01T11:38:44.566Z,38.5
2022-09-01T11:42:58.965Z,38.5
2022-09-01T11:45:04.662Z,38.5
2022-09-01T11:49:16.069Z,38.7
2022-09-01T11:51:21.799Z,38.7
2022-09-01T11:53:27.653Z,38.7
2022-09-01T11:55:36.246Z,38.6
2022-09-01T11:57:41.946Z,38.5
2022-09-01T11:59:47.686Z,38.5
2022-09-01T12:01:53.562Z,38.4
2022-09-01T12:03:59.141Z,38.4
2022-09-01T12:06:04.898Z,38.4
2022-09-01T12:08:10.630Z,38.4
2022-09-01T12:10:19.344Z,38.6
2022-09-01T12:12:25.099Z,38.7
2022-09-01T12:19:07.709Z,38.1
2022-09-01T12:21:13.446Z,38
2022-09-01T12:23:22.202Z,37.4
2022-09-01T12:25:27.915Z,37.3
2022-09-01T12:27:33.655Z,37.5
2022-09-01T12:29:39.406Z,37.3
2022-09-01T12:31:45.262Z,37.2
2022-09-01T12:33:50.921Z,37.2
2022-09-01T12:35:59.425Z,37.1
2022-09-01T12:38:07.723Z,37.1
2022-09-01T12:40:11.157Z,37.2
2022-09-01T12:42:16.845Z,37.2
2022-09-01T12:46:28.328Z,37.5
2022-09-01T12:50:39.824Z,37.4
2022-09-01T12:52:48.555Z,37.3
2022-09-01T12:57:00.038Z,37.3
2022-09-01T12:59:06.554Z,37.3
2022-09-01T13:01:16.459Z,37.2
2022-09-01T13:03:17.257Z,37.3
2022-09-01T13:07:31.740Z,37.6
2022-09-01T13:09:37.471Z,37.9
2022-09-01T13:12:07.264Z,37.9
2022-09-01T13:12:47.576Z,37.7
2022-09-01T13:14:53.321Z,37.7
2022-09-01T13:16:59.092Z,37.5
2022-09-01T13:19:12.213Z,37.2
2022-09-01T13:23:19.321Z,36.8
2022-09-01T13:25:25.006Z,36.7
2022-09-01T13:29:36.505Z,36.5
2022-09-01T13:32:18.831Z,36.4
2022-09-01T13:34:22.310Z,36.4
2022-09-01T13:35:56.695Z,36.5
2022-09-01T13:38:02.424Z,36.7
2022-09-01T13:40:08.317Z,36.8
2022-09-01T13:52:47.196Z,36.9
2022-09-01T13:54:52.934Z,36.8
2022-09-01T13:56:58.656Z,36.6
2022-09-01T13:59:04.402Z,36.5
2022-09-01T14:01:10.191Z,36.4
2022-09-01T14:03:15.859Z,36.3
2022-09-01T14:05:24.612Z,36.2
2022-09-01T14:07:30.363Z,36.3
2022-09-01T14:09:36.119Z,36.4
2022-09-01T14:10:40.446Z,36.2
2022-09-01T14:12:46.167Z,36.1
2022-09-01T14:15:16.070Z,36.1
2022-09-01T14:16:57.665Z,36
2022-09-01T14:19:06.400Z,35.9
2022-09-01T14:21:12.136Z,36
2022-09-01T14:23:17.869Z,36.2
2022-09-01T14:25:23.659Z,36.2
2022-09-01T14:29:35.087Z,36.2
2022-09-01T14:31:40.817Z,36.2
2022-09-01T14:40:06.860Z,35.8
2022-09-01T14:42:12.497Z,35.8
2022-09-01T14:44:18.210Z,35.9
2022-09-01T14:46:23.962Z,35.9
2022-09-01T14:48:32.675Z,35.8
2022-09-01T14:50:38.420Z,35.7
2022-09-01T14:52:44.128Z,35.6
2022-09-01T15:01:23.518Z,35.3
2022-09-01T15:03:20.492Z,35.3
2022-09-01T15:05:21.688Z,35.4
2022-09-01T15:07:27.268Z,35.4
2022-09-01T15:12:43.196Z,35.3
2022-09-01T15:16:57.575Z,35.2
2022-09-01T15:19:03.309Z,35.2
2022-09-01T15:21:09.033Z,35.2
2022-09-01T15:23:14.764Z,35.2
2022-09-01T15:25:20.508Z,35.1
2022-09-01T15:27:26.229Z,35.1
2022-09-01T15:31:40.730Z,34.9
2022-09-01T15:33:46.424Z,34.9
2022-09-01T15:35:53.855Z,34.8
2022-09-01T15:37:57.897Z,34.7
2022-09-01T15:40:03.644Z,34.6
2022-09-01T15:42:09.408Z,34.6
2022-09-01T15:46:23.861Z,34.7
2022-09-01T15:48:29.561Z,34.8
2022-09-01T15:50:35.295Z,34.9
2022-09-01T15:54:46.760Z,35
2022-09-01T15:56:52.497Z,35
2022-09-01T16:01:07.042Z,35.2
2022-09-01T16:03:12.753Z,35.4
2022-09-01T16:05:18.440Z,35.6
2022-09-01T16:07:49.596Z,35.6
2022-09-01T16:09:55.310Z,35.6
2022-09-01T16:12:01.162Z,35.7
2022-09-01T16:14:09.809Z,35.7
2022-09-01T16:18:21.337Z,35.9
2022-09-01T16:20:27.009Z,35.9
2022-09-01T16:22:32.798Z,35.8
2022-09-01T16:24:38.503Z,36
2022-09-01T16:26:44.232Z,35.9
2022-09-01T16:30:58.770Z,35.9
2022-09-01T16:41:27.434Z,36.2
2022-09-01T16:43:36.171Z,36.4
2022-09-01T16:45:43.193Z,36.5
2022-09-01T16:47:47.667Z,36.6
2022-09-01T16:54:04.933Z,36.9
2022-09-01T16:56:10.672Z,36.7
2022-09-01T16:58:21.695Z,36.7
2022-09-01T17:03:43.009Z,36.7
2022-09-01T17:05:41.038Z,36.9
2022-09-01T17:07:46.785Z,36.9
2022-09-01T17:09:52.556Z,36.9
2022-09-01T17:12:01.287Z,37
2022-09-01T17:14:07.043Z,37.1
2022-09-01T17:16:12.893Z,37.2
2022-09-01T17:18:22.859Z,37.2
2022-09-01T17:20:24.325Z,37.3
2022-09-01T17:22:30.074Z,37.3
2022-09-01T17:26:44.572Z,37.4
2022-09-01T17:28:50.346Z,37.6
2022-09-01T17:30:56.179Z,37.7
2022-09-01T17:33:01.883Z,37.7
2022-09-01T17:35:07.648Z,37.7
2022-09-01T17:37:13.414Z,37.7
2022-09-01T17:41:27.909Z,37.7
2022-09-01T17:43:33.702Z,37.7
2022-09-01T17:45:39.477Z,37.8
2022-09-01T17:51:56.831Z,38.3
2022-09-01T17:54:02.567Z,38.5
2022-09-01T17:56:11.315Z,39
2022-09-01T17:58:17.164Z,39.2
2022-09-01T18:00:22.869Z,39.3
2022-09-01T18:01:27.313Z,39.4
2022-09-01T18:05:38.833Z,39.6
2022-09-01T18:07:44.557Z,39.7
2022-09-01T18:09:53.321Z,39.9
2022-09-01T18:11:59.108Z,40
2022-09-01T18:14:04.869Z,40.1
2022-09-01T18:16:10.726Z,40.2
2022-09-01T18:18:16.434Z,40.3
2022-09-01T18:20:22.242Z,40.4
2022-09-01T18:22:28.012Z,40.5
2022-09-01T18:24:36.793Z,40.8
2022-09-01T18:26:42.580Z,41
2022-09-01T18:28:48.377Z,41
2022-09-01T18:30:54.154Z,41.1
2022-09-01T18:32:59.931Z,41.3
2022-09-01T18:35:05.753Z,41.5
2022-09-01T18:37:11.517Z,41.6
2022-09-01T18:39:20.274Z,42.1
2022-09-01T18:41:26.073Z,42.3
2022-09-01T18:43:31.849Z,42.6
2022-09-01T18:45:37.663Z,42.7
2022-09-01T18:47:43.434Z,42.9
2022-09-01T18:49:49.223Z,43
2022-09-01T18:56:09.579Z,43.4
2022-09-01T18:59:19.776Z,43.5
2022-09-01T19:01:25.675Z,43.5
2022-09-01T19:03:31.353Z,43.7
2022-09-01T19:05:37.155Z,43.7
2022-09-01T19:07:45.902Z,43.9
2022-09-01T19:09:51.702Z,44
2022-09-01T19:14:03.293Z,44.2
2022-09-01T19:20:20.666Z,44.3
2022-09-01T19:22:29.437Z,44.2
2022-09-01T19:26:41.038Z,44.1
2022-09-01T19:28:46.837Z,44.2
2022-09-01T19:32:58.467Z,44.3
2022-09-01T19:35:04.251Z,44.3
2022-09-01T19:37:13.020Z,44.6
2022-09-01T19:39:18.831Z,44.6
2022-09-01T19:41:24.609Z,44.7
2022-09-01T19:43:30.426Z,44.7
2022-09-01T19:45:36.238Z,44.8
2022-09-01T19:47:42.042Z,44.8
2022-09-01T19:54:02.469Z,45.1
2022-09-01T19:56:09.882Z,45.2
2022-09-01T19:58:41.068Z,44.9
2022-09-01T20:05:01.470Z,45.1
2022-09-01T20:09:13.117Z,45.6
2022-09-01T20:11:18.886Z,45.6
2022-09-01T20:13:24.702Z,45.6
2022-09-01T20:15:30.534Z,45.7
2022-09-01T20:17:36.294Z,45.7
2022-09-01T20:19:45.110Z,45.9
2022-09-01T20:21:50.905Z,45.9
2022-09-01T20:23:56.762Z,46
2022-09-01T20:26:02.543Z,46
2022-09-01T20:28:08.360Z,46.2
2022-09-01T20:30:14.176Z,46.2
2022-09-01T20:32:19.989Z,46.3
2022-09-01T20:34:28.776Z,46.4
2022-09-01T20:36:34.590Z,46.6
2022-09-01T20:38:42.192Z,46.6
2022-09-01T20:40:46.261Z,46.7
2022-09-01T20:42:52.026Z,46.7
2022-09-01T20:44:57.824Z,46.8
2022-09-01T20:47:03.672Z,46.8
2022-09-01T20:49:12.434Z,46.9
2022-09-01T20:51:18.297Z,47
2022-09-01T20:53:24.072Z,47.1
2022-09-01T20:54:28.460Z,47
2022-09-01T21:02:54.784Z,47.2
2022-09-01T21:05:00.543Z,47.2
2022-09-01T21:07:06.340Z,47.2
2022-09-01T21:09:12.181Z,47.2
2022-09-01T21:11:17.998Z,47.2
2022-09-01T21:13:25.150Z,47.1
2022-09-01T21:15:29.631Z,47.2
2022-09-01T21:17:38.424Z,47.2
2022-09-01T21:19:44.237Z,47.3
2022-09-01T21:21:50.090Z,47.4
2022-09-01T21:23:55.868Z,47.5
2022-09-01T21:26:01.688Z,47.6
2022-09-01T21:28:07.521Z,47.7
2022-09-01T21:30:13.396Z,47.7
2022-09-01T21:38:39.598Z,48
2022-09-01T21:42:51.260Z,48.1
2022-09-01T21:49:11.717Z,48.5
2022-09-01T21:51:17.539Z,48.5
2022-09-01T21:52:21.934Z,48.7
2022-09-01T21:58:39.426Z,48.8
2022-09-01T22:02:54.065Z,49.1
2022-09-01T22:06:59.620Z,49.3
2022-09-01T22:09:20.309Z,49.4
2022-09-01T22:11:11.258Z,49.4
2022-09-01T22:17:31.701Z,49.9
2022-09-01T22:19:37.539Z,49.9
2022-09-01T22:21:43.357Z,50.2
2022-09-01T22:23:49.235Z,50.3
2022-09-01T22:25:55.022Z,50.5
2022-09-01T22:28:00.845Z,50.5
2022-09-01T22:30:09.661Z,50.7
2022-09-01T22:36:27.120Z,51
2022-09-01T22:38:32.965Z,51.1
2022-09-01T22:40:38.785Z,51.2
2022-09-01T22:44:53.368Z,51.6
2022-09-01T22:46:59.177Z,51.7
2022-09-01T22:49:05.025Z,51.7
2022-09-01T22:50:09.393Z,51.7
2022-09-01T22:54:21.089Z,51.8
2022-09-01T22:56:26.896Z,51.8
2022-09-01T23:00:41.902Z,52
2022-09-01T23:02:47.510Z,52.1
2022-09-01T23:04:53.186Z,52.2
2022-09-01T23:06:59.010Z,52.4
2022-09-01T23:09:04.876Z,52.5
2022-09-01T23:11:10.661Z,52.7
2022-09-01T23:13:19.496Z,52.9
2022-09-01T23:15:25.290Z,53
2022-09-01T23:17:31.111Z,53.1
2022-09-01T23:19:36.952Z,53.2
2022-09-01T23:21:42.812Z,53.2
2022-09-01T23:23:48.599Z,53.3
2022-09-01T23:25:54.443Z,53.3
2022-09-01T23:28:03.221Z,53.5
2022-09-01T23:30:09.047Z,53.6
2022-09-01T23:34:20.715Z,53.8
2022-09-01T23:36:26.534Z,53.9
2022-09-01T23:38:32.390Z,54
2022-09-01T23:44:52.796Z,54.7
2022-09-01T23:46:58.605Z,54.8
2022-09-01T23:49:29.926Z,55
2022-09-01T23:51:35.762Z,55.2
2022-09-01T23:53:41.588Z,55.3
2022-09-01T23:55:50.392Z,55.7
2022-09-01T23:57:56.225Z,55.7
